Terminal Aerodrome Forecast
Issued by NWS

Home | Current Version | Previous Version | Text Only | Print | Product List | Glossary On
Versions: 1 2 3 4 5 6 7 8 9 10 11 12 13 14 15
000
FTAK31 PAFA 311738
TAFAUN
TAF
PAUN 311738Z 3118/0118 02008KT P6SM OVC050
     FM312100 08015KT P6SM SCT060
     FM010300 08020KT P6SM SCT200=

USA.gov is the U.S. government's official web portal to all federal, state and local government web resources and services.